sensor_id;sensor_type;location;lat;lon;timestamp;P1;durP1;ratioP1;P2;durP2;ratioP2
12675;SDS011;63820;65.654;21.944;2023-06-22T00:02:40;19.63;;;17.00;;
12675;SDS011;63820;65.654;21.944;2023-06-22T00:05:24;19.83;;;17.63;;
12675;SDS011;63820;65.654;21.944;2023-06-22T00:08:08;20.20;;;18.00;;
12675;SDS011;63820;65.654;21.944;2023-06-22T00:10:52;23.37;;;20.17;;
12675;SDS011;63820;65.654;21.944;2023-06-22T00:13:36;21.73;;;19.43;;
12675;SDS011;63820;65.654;21.944;2023-06-22T00:16:21;22.30;;;19.57;;
12675;SDS011;63820;65.654;21.944;2023-06-22T00:19:05;19.40;;;17.30;;
12675;SDS011;63820;65.654;21.944;2023-06-22T00:21:50;22.50;;;19.67;;
12675;SDS011;63820;65.654;21.944;2023-06-22T00:24:37;22.17;;;19.63;;
12675;SDS011;63820;65.654;21.944;2023-06-22T00:27:21;24.23;;;20.83;;
12675;SDS011;63820;65.654;21.944;2023-06-22T00:30:05;24.63;;;20.83;;
12675;SDS011;63820;65.654;21.944;2023-06-22T00:32:50;21.27;;;18.97;;
12675;SDS011;63820;65.654;21.944;2023-06-22T00:35:34;25.80;;;20.97;;
12675;SDS011;63820;65.654;21.944;2023-06-22T00:38:18;24.20;;;19.80;;
12675;SDS011;63820;65.654;21.944;2023-06-22T00:41:02;21.07;;;18.30;;
12675;SDS011;63820;65.654;21.944;2023-06-22T00:43:46;21.67;;;19.23;;
12675;SDS011;63820;65.654;21.944;2023-06-22T00:46:30;20.33;;;18.13;;
12675;SDS011;63820;65.654;21.944;2023-06-22T00:49:15;22.70;;;20.00;;
12675;SDS011;63820;65.654;21.944;2023-06-22T00:51:59;25.40;;;22.63;;
12675;SDS011;63820;65.654;21.944;2023-06-22T00:54:43;26.67;;;23.77;;
12675;SDS011;63820;65.654;21.944;2023-06-22T00:57:28;27.50;;;23.63;;
12675;SDS011;63820;65.654;21.944;2023-06-22T01:00:16;24.50;;;21.80;;
12675;SDS011;63820;65.654;21.944;2023-06-22T01:03:03;22.90;;;20.43;;
12675;SDS011;63820;65.654;21.944;2023-06-22T01:05:47;25.73;;;21.80;;
12675;SDS011;63820;65.654;21.944;2023-06-22T01:08:51;29.90;;;24.87;;
12675;SDS011;63820;65.654;21.944;2023-06-22T01:12:03;33.00;;;26.87;;
12675;SDS011;63820;65.654;21.944;2023-06-22T01:14:50;26.23;;;23.37;;
12675;SDS011;63820;65.654;21.944;2023-06-22T01:17:43;24.47;;;21.90;;
12675;SDS011;63820;65.654;21.944;2023-06-22T01:20:28;24.97;;;21.07;;
12675;SDS011;63820;65.654;21.944;2023-06-22T01:23:25;25.93;;;23.13;;
12675;SDS011;63820;65.654;21.944;2023-06-22T01:26:18;25.43;;;22.60;;
12675;SDS011;63820;65.654;21.944;2023-06-22T01:29:19;25.37;;;22.43;;
12675;SDS011;63820;65.654;21.944;2023-06-22T01:32:05;26.87;;;23.97;;
12675;SDS011;63820;65.654;21.944;2023-06-22T01:34:50;26.60;;;23.70;;
12675;SDS011;63820;65.654;21.944;2023-06-22T01:37:35;25.63;;;22.93;;
12675;SDS011;63820;65.654;21.944;2023-06-22T01:40:21;24.80;;;22.13;;
12675;SDS011;63820;65.654;21.944;2023-06-22T01:43:05;22.97;;;20.43;;
12675;SDS011;63820;65.654;21.944;2023-06-22T01:45:50;22.73;;;20.13;;
12675;SDS011;63820;65.654;21.944;2023-06-22T01:48:35;22.53;;;19.83;;
12675;SDS011;63820;65.654;21.944;2023-06-22T01:51:19;23.20;;;19.93;;
12675;SDS011;63820;65.654;21.944;2023-06-22T01:54:05;25.53;;;21.63;;
12675;SDS011;63820;65.654;21.944;2023-06-22T01:56:49;26.93;;;23.97;;
12675;SDS011;63820;65.654;21.944;2023-06-22T01:59:35;26.60;;;23.80;;
12675;SDS011;63820;65.654;21.944;2023-06-22T02:02:31;27.13;;;23.27;;
12675;SDS011;63820;65.654;21.944;2023-06-22T02:05:37;28.37;;;25.43;;
12675;SDS011;63820;65.654;21.944;2023-06-22T02:08:30;27.90;;;24.43;;
12675;SDS011;63820;65.654;21.944;2023-06-22T02:11:18;28.87;;;25.77;;
12675;SDS011;63820;65.654;21.944;2023-06-22T02:14:04;30.73;;;25.33;;
12675;SDS011;63820;65.654;21.944;2023-06-22T02:16:53;28.17;;;25.17;;
12675;SDS011;63820;65.654;21.944;2023-06-22T02:19:38;29.23;;;26.13;;
12675;SDS011;63820;65.654;21.944;2023-06-22T02:22:24;31.50;;;28.00;;
12675;SDS011;63820;65.654;21.944;2023-06-22T02:25:08;31.40;;;27.73;;
12675;SDS011;63820;65.654;21.944;2023-06-22T02:27:53;30.10;;;26.90;;
12675;SDS011;63820;65.654;21.944;2023-06-22T02:30:36;29.50;;;26.30;;
12675;SDS011;63820;65.654;21.944;2023-06-22T02:33:21;28.50;;;25.60;;
12675;SDS011;63820;65.654;21.944;2023-06-22T02:36:05;28.60;;;25.57;;
12675;SDS011;63820;65.654;21.944;2023-06-22T02:38:53;26.40;;;23.60;;
12675;SDS011;63820;65.654;21.944;2023-06-22T02:41:37;26.03;;;23.37;;
12675;SDS011;63820;65.654;21.944;2023-06-22T02:44:21;23.17;;;20.83;;
12675;SDS011;63820;65.654;21.944;2023-06-22T02:47:05;26.40;;;23.60;;
12675;SDS011;63820;65.654;21.944;2023-06-22T02:49:49;25.77;;;23.10;;
12675;SDS011;63820;65.654;21.944;2023-06-22T02:52:34;23.83;;;21.43;;
12675;SDS011;63820;65.654;21.944;2023-06-22T02:55:18;25.33;;;22.60;;
12675;SDS011;63820;65.654;21.944;2023-06-22T02:58:02;24.33;;;21.83;;
12675;SDS011;63820;65.654;21.944;2023-06-22T03:00:48;24.50;;;22.00;;
12675;SDS011;63820;65.654;21.944;2023-06-22T03:03:35;24.83;;;22.10;;
12675;SDS011;63820;65.654;21.944;2023-06-22T03:06:19;24.00;;;21.60;;
12675;SDS011;63820;65.654;21.944;2023-06-22T03:09:06;22.80;;;20.60;;
12675;SDS011;63820;65.654;21.944;2023-06-22T03:11:51;22.43;;;20.10;;
12675;SDS011;63820;65.654;21.944;2023-06-22T03:14:35;21.83;;;19.67;;
12675;SDS011;63820;65.654;21.944;2023-06-22T03:17:19;19.10;;;17.20;;
12675;SDS011;63820;65.654;21.944;2023-06-22T03:20:03;18.47;;;16.73;;
12675;SDS011;63820;65.654;21.944;2023-06-22T03:22:54;17.33;;;15.63;;
12675;SDS011;63820;65.654;21.944;2023-06-22T03:25:38;16.57;;;15.07;;
12675;SDS011;63820;65.654;21.944;2023-06-22T03:28:22;15.50;;;13.83;;
12675;SDS011;63820;65.654;21.944;2023-06-22T03:31:07;16.13;;;14.43;;
12675;SDS011;63820;65.654;21.944;2023-06-22T03:33:51;15.27;;;13.67;;
12675;SDS011;63820;65.654;21.944;2023-06-22T03:36:36;14.50;;;12.97;;
12675;SDS011;63820;65.654;21.944;2023-06-22T03:39:20;14.50;;;13.00;;
12675;SDS011;63820;65.654;21.944;2023-06-22T03:42:05;13.93;;;12.50;;
12675;SDS011;63820;65.654;21.944;2023-06-22T03:44:49;15.03;;;13.53;;
12675;SDS011;63820;65.654;21.944;2023-06-22T03:47:33;13.77;;;12.37;;
12675;SDS011;63820;65.654;21.944;2023-06-22T03:50:18;14.43;;;13.03;;
12675;SDS011;63820;65.654;21.944;2023-06-22T03:53:04;12.97;;;11.73;;
12675;SDS011;63820;65.654;21.944;2023-06-22T03:55:48;13.40;;;12.00;;
12675;SDS011;63820;65.654;21.944;2023-06-22T03:58:36;12.35;;;11.05;;
12675;SDS011;63820;65.654;21.944;2023-06-22T04:01:26;12.85;;;11.52;;
12675;SDS011;63820;65.654;21.944;2023-06-22T04:04:10;12.32;;;11.20;;
12675;SDS011;63820;65.654;21.944;2023-06-22T04:06:54;13.70;;;12.25;;
12675;SDS011;63820;65.654;21.944;2023-06-22T04:09:38;12.40;;;11.27;;
12675;SDS011;63820;65.654;21.944;2023-06-22T04:12:23;12.80;;;11.60;;
12675;SDS011;63820;65.654;21.944;2023-06-22T04:15:07;12.85;;;11.50;;
12675;SDS011;63820;65.654;21.944;2023-06-22T04:17:52;12.37;;;11.07;;
12675;SDS011;63820;65.654;21.944;2023-06-22T04:20:36;12.80;;;11.50;;
12675;SDS011;63820;65.654;21.944;2023-06-22T04:23:20;11.68;;;10.43;;
12675;SDS011;63820;65.654;21.944;2023-06-22T04:26:04;12.00;;;10.73;;
12675;SDS011;63820;65.654;21.944;2023-06-22T04:28:49;11.40;;;10.20;;
12675;SDS011;63820;65.654;21.944;2023-06-22T04:31:39;10.90;;;9.85;;
12675;SDS011;63820;65.654;21.944;2023-06-22T04:34:24;11.35;;;10.15;;
12675;SDS011;63820;65.654;21.944;2023-06-22T04:37:11;11.60;;;10.35;;
12675;SDS011;63820;65.654;21.944;2023-06-22T04:39:59;10.45;;;9.48;;
12675;SDS011;63820;65.654;21.944;2023-06-22T04:42:43;10.02;;;9.02;;
12675;SDS011;63820;65.654;21.944;2023-06-22T04:45:36;10.55;;;9.30;;
12675;SDS011;63820;65.654;21.944;2023-06-22T04:48:21;10.60;;;9.50;;
12675;SDS011;63820;65.654;21.944;2023-06-22T04:51:06;10.20;;;9.27;;
12675;SDS011;63820;65.654;21.944;2023-06-22T04:53:52;9.80;;;8.90;;
12675;SDS011;63820;65.654;21.944;2023-06-22T04:56:36;10.38;;;9.35;;
12675;SDS011;63820;65.654;21.944;2023-06-22T04:59:20;8.93;;;8.02;;
12675;SDS011;63820;65.654;21.944;2023-06-22T05:02:04;9.73;;;8.25;;
12675;SDS011;63820;65.654;21.944;2023-06-22T05:04:49;8.90;;;8.00;;
12675;SDS011;63820;65.654;21.944;2023-06-22T05:07:35;8.90;;;7.57;;
12675;SDS011;63820;65.654;21.944;2023-06-22T05:10:19;7.95;;;7.15;;
12675;SDS011;63820;65.654;21.944;2023-06-22T05:13:03;7.93;;;7.13;;
12675;SDS011;63820;65.654;21.944;2023-06-22T05:15:47;8.68;;;7.85;;
12675;SDS011;63820;65.654;21.944;2023-06-22T05:18:31;8.35;;;7.53;;
12675;SDS011;63820;65.654;21.944;2023-06-22T05:21:16;10.32;;;7.97;;
12675;SDS011;63820;65.654;21.944;2023-06-22T05:24:00;9.45;;;7.65;;
12675;SDS011;63820;65.654;21.944;2023-06-22T05:26:46;8.25;;;7.45;;
12675;SDS011;63820;65.654;21.944;2023-06-22T05:29:29;7.72;;;7.03;;
12675;SDS011;63820;65.654;21.944;2023-06-22T05:32:14;7.43;;;6.72;;
12675;SDS011;63820;65.654;21.944;2023-06-22T05:34:58;8.30;;;6.85;;
12675;SDS011;63820;65.654;21.944;2023-06-22T05:37:42;8.57;;;7.35;;
12675;SDS011;63820;65.654;21.944;2023-06-22T05:40:26;7.55;;;6.85;;
12675;SDS011;63820;65.654;21.944;2023-06-22T05:43:11;7.07;;;6.38;;
12675;SDS011;63820;65.654;21.944;2023-06-22T05:45:55;7.55;;;6.85;;
12675;SDS011;63820;65.654;21.944;2023-06-22T05:48:39;7.45;;;6.75;;
12675;SDS011;63820;65.654;21.944;2023-06-22T05:51:23;9.45;;;6.72;;
12675;SDS011;63820;65.654;21.944;2023-06-22T05:54:07;6.70;;;6.10;;
12675;SDS011;63820;65.654;21.944;2023-06-22T05:56:52;6.85;;;6.15;;
12675;SDS011;63820;65.654;21.944;2023-06-22T05:59:36;7.32;;;6.65;;
12675;SDS011;63820;65.654;21.944;2023-06-22T06:02:20;7.78;;;7.03;;
12675;SDS011;63820;65.654;21.944;2023-06-22T06:05:04;8.05;;;7.07;;
12675;SDS011;63820;65.654;21.944;2023-06-22T06:07:49;7.57;;;6.88;;
12675;SDS011;63820;65.654;21.944;2023-06-22T06:10:33;7.70;;;7.00;;
12675;SDS011;63820;65.654;21.944;2023-06-22T06:13:19;7.15;;;6.38;;
12675;SDS011;63820;65.654;21.944;2023-06-22T06:16:03;7.40;;;6.70;;
12675;SDS011;63820;65.654;21.944;2023-06-22T06:18:47;7.30;;;6.60;;
12675;SDS011;63820;65.654;21.944;2023-06-22T06:21:34;8.50;;;7.07;;
12675;SDS011;63820;65.654;21.944;2023-06-22T06:24:18;8.45;;;7.63;;
12675;SDS011;63820;65.654;21.944;2023-06-22T06:27:02;7.38;;;6.70;;
12675;SDS011;63820;65.654;21.944;2023-06-22T06:29:48;9.32;;;7.47;;
12675;SDS011;63820;65.654;21.944;2023-06-22T06:32:32;8.07;;;7.38;;
12675;SDS011;63820;65.654;21.944;2023-06-22T06:35:16;8.35;;;7.55;;
12675;SDS011;63820;65.654;21.944;2023-06-22T06:38:00;9.40;;;7.45;;
12675;SDS011;63820;65.654;21.944;2023-06-22T06:40:44;7.68;;;6.97;;
12675;SDS011;63820;65.654;21.944;2023-06-22T06:43:29;7.97;;;7.28;;
12675;SDS011;63820;65.654;21.944;2023-06-22T06:46:12;7.95;;;6.93;;
12675;SDS011;63820;65.654;21.944;2023-06-22T06:48:56;7.10;;;6.50;;
12675;SDS011;63820;65.654;21.944;2023-06-22T06:51:40;7.68;;;6.97;;
12675;SDS011;63820;65.654;21.944;2023-06-22T06:54:24;7.72;;;6.90;;
12675;SDS011;63820;65.654;21.944;2023-06-22T06:57:08;8.77;;;7.22;;
12675;SDS011;63820;65.654;21.944;2023-06-22T06:59:57;8.50;;;7.75;;
12675;SDS011;63820;65.654;21.944;2023-06-22T07:02:43;7.82;;;7.03;;
12675;SDS011;63820;65.654;21.944;2023-06-22T07:05:27;8.15;;;7.45;;
12675;SDS011;63820;65.654;21.944;2023-06-22T07:08:11;8.32;;;7.55;;
12675;SDS011;63820;65.654;21.944;2023-06-22T07:10:55;8.45;;;7.60;;
12675;SDS011;63820;65.654;21.944;2023-06-22T07:13:40;8.05;;;7.32;;
12675;SDS011;63820;65.654;21.944;2023-06-22T07:16:24;8.13;;;7.43;;
12675;SDS011;63820;65.654;21.944;2023-06-22T07:19:11;8.50;;;7.32;;
12675;SDS011;63820;65.654;21.944;2023-06-22T07:21:55;7.97;;;7.20;;
12675;SDS011;63820;65.654;21.944;2023-06-22T07:24:40;7.55;;;6.85;;
12675;SDS011;63820;65.654;21.944;2023-06-22T07:27:23;8.65;;;7.85;;
12675;SDS011;63820;65.654;21.944;2023-06-22T07:30:08;8.25;;;7.45;;
12675;SDS011;63820;65.654;21.944;2023-06-22T07:32:54;8.15;;;7.47;;
12675;SDS011;63820;65.654;21.944;2023-06-22T07:35:38;9.25;;;7.90;;
12675;SDS011;63820;65.654;21.944;2023-06-22T07:38:22;8.25;;;7.55;;
12675;SDS011;63820;65.654;21.944;2023-06-22T07:41:07;8.98;;;8.10;;
12675;SDS011;63820;65.654;21.944;2023-06-22T07:43:51;8.07;;;7.38;;
12675;SDS011;63820;65.654;21.944;2023-06-22T07:46:35;8.68;;;7.78;;
12675;SDS011;63820;65.654;21.944;2023-06-22T07:49:19;7.90;;;7.20;;
12675;SDS011;63820;65.654;21.944;2023-06-22T07:52:03;8.95;;;8.05;;
12675;SDS011;63820;65.654;21.944;2023-06-22T07:54:48;8.48;;;7.70;;
12675;SDS011;63820;65.654;21.944;2023-06-22T07:57:32;8.40;;;7.65;;
12675;SDS011;63820;65.654;21.944;2023-06-22T08:00:17;9.10;;;8.30;;
12675;SDS011;63820;65.654;21.944;2023-06-22T08:03:02;9.27;;;8.32;;
12675;SDS011;63820;65.654;21.944;2023-06-22T08:05:48;9.35;;;8.65;;
12675;SDS011;63820;65.654;21.944;2023-06-22T08:08:33;9.77;;;8.88;;
12675;SDS011;63820;65.654;21.944;2023-06-22T08:11:17;9.65;;;8.85;;
12675;SDS011;63820;65.654;21.944;2023-06-22T08:14:01;10.23;;;9.25;;
12675;SDS011;63820;65.654;21.944;2023-06-22T08:16:45;9.38;;;8.50;;
12675;SDS011;63820;65.654;21.944;2023-06-22T08:19:30;9.43;;;8.70;;
12675;SDS011;63820;65.654;21.944;2023-06-22T08:22:15;10.07;;;9.27;;
12675;SDS011;63820;65.654;21.944;2023-06-22T08:24:59;10.05;;;9.23;;
12675;SDS011;63820;65.654;21.944;2023-06-22T08:27:47;9.98;;;9.27;;
12675;SDS011;63820;65.654;21.944;2023-06-22T08:30:32;10.25;;;9.35;;
12675;SDS011;63820;65.654;21.944;2023-06-22T08:33:16;10.05;;;9.15;;
12675;SDS011;63820;65.654;21.944;2023-06-22T08:36:01;10.30;;;9.50;;
12675;SDS011;63820;65.654;21.944;2023-06-22T08:38:45;10.23;;;9.32;;
12675;SDS011;63820;65.654;21.944;2023-06-22T08:41:33;9.73;;;8.75;;
12675;SDS011;63820;65.654;21.944;2023-06-22T08:44:18;9.30;;;8.60;;
12675;SDS011;63820;65.654;21.944;2023-06-22T08:47:02;10.07;;;9.15;;
12675;SDS011;63820;65.654;21.944;2023-06-22T08:49:47;9.85;;;9.02;;
12675;SDS011;63820;65.654;21.944;2023-06-22T08:52:31;9.75;;;8.98;;
12675;SDS011;63820;65.654;21.944;2023-06-22T08:55:15;9.45;;;8.68;;
12675;SDS011;63820;65.654;21.944;2023-06-22T08:57:59;8.90;;;8.18;;
12675;SDS011;63820;65.654;21.944;2023-06-22T09:00:43;8.90;;;8.18;;
12675;SDS011;63820;65.654;21.944;2023-06-22T09:03:26;10.23;;;9.30;;
12675;SDS011;63820;65.654;21.944;2023-06-22T09:06:10;9.73;;;8.93;;
12675;SDS011;63820;65.654;21.944;2023-06-22T09:08:55;9.50;;;8.80;;
12675;SDS011;63820;65.654;21.944;2023-06-22T09:11:40;10.13;;;9.23;;
12675;SDS011;63820;65.654;21.944;2023-06-22T09:14:24;9.73;;;8.93;;
12675;SDS011;63820;65.654;21.944;2023-06-22T09:17:08;10.05;;;9.25;;
12675;SDS011;63820;65.654;21.944;2023-06-22T09:19:52;9.90;;;9.10;;
12675;SDS011;63820;65.654;21.944;2023-06-22T09:22:36;9.55;;;8.75;;
12675;SDS011;63820;65.654;21.944;2023-06-22T09:25:20;9.35;;;8.63;;
12675;SDS011;63820;65.654;21.944;2023-06-22T09:28:05;9.48;;;8.57;;
12675;SDS011;63820;65.654;21.944;2023-06-22T09:30:49;9.77;;;8.82;;
12675;SDS011;63820;65.654;21.944;2023-06-22T09:33:33;9.35;;;8.55;;
12675;SDS011;63820;65.654;21.944;2023-06-22T09:36:17;9.20;;;8.50;;
12675;SDS011;63820;65.654;21.944;2023-06-22T09:39:01;9.55;;;8.75;;
12675;SDS011;63820;65.654;21.944;2023-06-22T09:41:49;9.65;;;8.68;;
12675;SDS011;63820;65.654;21.944;2023-06-22T09:44:34;9.75;;;8.85;;
12675;SDS011;63820;65.654;21.944;2023-06-22T09:47:18;9.77;;;8.90;;
12675;SDS011;63820;65.654;21.944;2023-06-22T09:50:02;9.27;;;8.48;;
12675;SDS011;63820;65.654;21.944;2023-06-22T09:52:47;8.63;;;7.93;;
12675;SDS011;63820;65.654;21.944;2023-06-22T09:55:34;9.57;;;8.77;;
12675;SDS011;63820;65.654;21.944;2023-06-22T09:58:19;9.43;;;8.60;;
12675;SDS011;63820;65.654;21.944;2023-06-22T10:01:03;9.68;;;8.88;;
12675;SDS011;63820;65.654;21.944;2023-06-22T10:03:47;9.40;;;8.60;;
12675;SDS011;63820;65.654;21.944;2023-06-22T10:06:31;9.65;;;8.82;;
12675;SDS011;63820;65.654;21.944;2023-06-22T10:09:15;9.82;;;9.00;;
12675;SDS011;63820;65.654;21.944;2023-06-22T10:11:59;9.73;;;8.82;;
12675;SDS011;63820;65.654;21.944;2023-06-22T10:14:43;9.55;;;8.85;;
12675;SDS011;63820;65.654;21.944;2023-06-22T10:17:27;9.95;;;9.15;;
12675;SDS011;63820;65.654;21.944;2023-06-22T10:20:11;9.40;;;8.60;;
12675;SDS011;63820;65.654;21.944;2023-06-22T10:22:55;9.52;;;8.73;;
12675;SDS011;63820;65.654;21.944;2023-06-22T10:25:40;9.18;;;8.50;;
12675;SDS011;63820;65.654;21.944;2023-06-22T10:28:24;9.52;;;8.70;;
12675;SDS011;63820;65.654;21.944;2023-06-22T10:31:08;9.52;;;8.68;;
12675;SDS011;63820;65.654;21.944;2023-06-22T10:33:52;10.85;;;9.85;;
12675;SDS011;63820;65.654;21.944;2023-06-22T10:36:37;11.23;;;10.23;;
12675;SDS011;63820;65.654;21.944;2023-06-22T10:39:22;12.68;;;11.57;;
12675;SDS011;63820;65.654;21.944;2023-06-22T10:42:06;12.60;;;11.43;;
12675;SDS011;63820;65.654;21.944;2023-06-22T10:44:50;11.85;;;10.77;;
12675;SDS011;63820;65.654;21.944;2023-06-22T10:47:34;13.05;;;11.55;;
12675;SDS011;63820;65.654;21.944;2023-06-22T10:50:19;13.00;;;11.60;;
12675;SDS011;63820;65.654;21.944;2023-06-22T10:53:04;12.75;;;11.40;;
12675;SDS011;63820;65.654;21.944;2023-06-22T10:55:48;12.05;;;10.85;;
12675;SDS011;63820;65.654;21.944;2023-06-22T10:58:32;13.20;;;10.90;;
12675;SDS011;63820;65.654;21.944;2023-06-22T11:01:16;11.88;;;10.77;;
12675;SDS011;63820;65.654;21.944;2023-06-22T11:04:01;12.75;;;11.45;;
12675;SDS011;63820;65.654;21.944;2023-06-22T11:06:45;12.50;;;11.30;;
12675;SDS011;63820;65.654;21.944;2023-06-22T11:09:29;12.98;;;11.60;;
12675;SDS011;63820;65.654;21.944;2023-06-22T11:12:13;12.82;;;11.52;;
12675;SDS011;63820;65.654;21.944;2023-06-22T11:14:57;14.70;;;12.55;;
12675;SDS011;63820;65.654;21.944;2023-06-22T11:17:41;14.07;;;12.43;;
12675;SDS011;63820;65.654;21.944;2023-06-22T11:20:25;12.10;;;10.82;;
12675;SDS011;63820;65.654;21.944;2023-06-22T11:23:09;12.02;;;10.85;;
12675;SDS011;63820;65.654;21.944;2023-06-22T11:25:55;11.63;;;10.52;;
12675;SDS011;63820;65.654;21.944;2023-06-22T11:28:40;11.85;;;10.85;;
12675;SDS011;63820;65.654;21.944;2023-06-22T11:31:24;11.52;;;10.43;;
12675;SDS011;63820;65.654;21.944;2023-06-22T11:34:08;11.75;;;10.65;;
12675;SDS011;63820;65.654;21.944;2023-06-22T11:36:52;11.02;;;10.13;;
12675;SDS011;63820;65.654;21.944;2023-06-22T11:39:36;11.40;;;10.40;;
12675;SDS011;63820;65.654;21.944;2023-06-22T11:42:20;11.35;;;10.32;;
12675;SDS011;63820;65.654;21.944;2023-06-22T11:45:07;11.15;;;10.07;;
12675;SDS011;63820;65.654;21.944;2023-06-22T11:47:51;10.63;;;9.77;;
12675;SDS011;63820;65.654;21.944;2023-06-22T11:50:35;10.88;;;9.88;;
12675;SDS011;63820;65.654;21.944;2023-06-22T11:53:20;11.65;;;10.50;;
12675;SDS011;63820;65.654;21.944;2023-06-22T11:56:05;11.52;;;10.52;;
12675;SDS011;63820;65.654;21.944;2023-06-22T11:58:49;11.07;;;9.48;;
12675;SDS011;63820;65.654;21.944;2023-06-22T12:01:33;11.02;;;10.02;;
12675;SDS011;63820;65.654;21.944;2023-06-22T12:04:17;10.73;;;9.82;;
12675;SDS011;63820;65.654;21.944;2023-06-22T12:07:02;11.18;;;10.23;;
12675;SDS011;63820;65.654;21.944;2023-06-22T12:09:46;11.05;;;10.05;;
12675;SDS011;63820;65.654;21.944;2023-06-22T12:12:30;11.05;;;10.05;;
12675;SDS011;63820;65.654;21.944;2023-06-22T12:15:14;10.43;;;9.52;;
12675;SDS011;63820;65.654;21.944;2023-06-22T12:17:58;10.90;;;9.88;;
12675;SDS011;63820;65.654;21.944;2023-06-22T12:20:42;11.13;;;10.05;;
12675;SDS011;63820;65.654;21.944;2023-06-22T12:23:26;10.52;;;9.63;;
12675;SDS011;63820;65.654;21.944;2023-06-22T12:26:10;10.95;;;9.95;;
12675;SDS011;63820;65.654;21.944;2023-06-22T12:28:54;10.88;;;9.90;;
12675;SDS011;63820;65.654;21.944;2023-06-22T12:31:38;12.93;;;10.18;;
12675;SDS011;63820;65.654;21.944;2023-06-22T12:34:23;10.90;;;10.00;;
12675;SDS011;63820;65.654;21.944;2023-06-22T12:37:07;11.48;;;10.48;;
12675;SDS011;63820;65.654;21.944;2023-06-22T12:39:52;11.23;;;10.23;;
12675;SDS011;63820;65.654;21.944;2023-06-22T12:42:38;10.52;;;9.43;;
12675;SDS011;63820;65.654;21.944;2023-06-22T12:45:22;11.80;;;10.73;;
12675;SDS011;63820;65.654;21.944;2023-06-22T12:48:06;13.07;;;11.73;;
12675;SDS011;63820;65.654;21.944;2023-06-22T12:50:51;14.02;;;11.50;;
12675;SDS011;63820;65.654;21.944;2023-06-22T12:53:35;12.07;;;10.88;;
12675;SDS011;63820;65.654;21.944;2023-06-22T12:56:19;11.18;;;10.10;;
12675;SDS011;63820;65.654;21.944;2023-06-22T12:59:04;10.63;;;9.63;;
12675;SDS011;63820;65.654;21.944;2023-06-22T13:01:49;12.05;;;10.95;;
12675;SDS011;63820;65.654;21.944;2023-06-22T13:04:34;11.57;;;10.45;;
12675;SDS011;63820;65.654;21.944;2023-06-22T13:07:18;11.55;;;10.38;;
12675;SDS011;63820;65.654;21.944;2023-06-22T13:10:02;11.77;;;10.70;;
12675;SDS011;63820;65.654;21.944;2023-06-22T13:12:47;11.88;;;10.77;;
12675;SDS011;63820;65.654;21.944;2023-06-22T13:15:31;11.18;;;10.15;;
12675;SDS011;63820;65.654;21.944;2023-06-22T13:18:15;11.75;;;10.75;;
12675;SDS011;63820;65.654;21.944;2023-06-22T13:21:00;12.38;;;11.13;;
12675;SDS011;63820;65.654;21.944;2023-06-22T13:23:43;14.25;;;11.07;;
12675;SDS011;63820;65.654;21.944;2023-06-22T13:26:27;11.73;;;10.63;;
12675;SDS011;63820;65.654;21.944;2023-06-22T13:29:15;11.27;;;10.27;;
12675;SDS011;63820;65.654;21.944;2023-06-22T13:31:59;12.13;;;11.02;;
12675;SDS011;63820;65.654;21.944;2023-06-22T13:34:43;13.23;;;11.82;;
12675;SDS011;63820;65.654;21.944;2023-06-22T13:37:27;16.33;;;14.05;;
12675;SDS011;63820;65.654;21.944;2023-06-22T13:40:11;15.60;;;13.43;;
12675;SDS011;63820;65.654;21.944;2023-06-22T13:42:56;15.38;;;13.77;;
12675;SDS011;63820;65.654;21.944;2023-06-22T13:45:40;13.85;;;12.38;;
12675;SDS011;63820;65.654;21.944;2023-06-22T13:48:25;12.43;;;11.23;;
12675;SDS011;63820;65.654;21.944;2023-06-22T13:51:09;11.80;;;10.70;;
12675;SDS011;63820;65.654;21.944;2023-06-22T13:53:54;11.27;;;10.15;;
12675;SDS011;63820;65.654;21.944;2023-06-22T13:56:38;11.10;;;10.10;;
12675;SDS011;63820;65.654;21.944;2023-06-22T13:59:22;11.75;;;10.65;;
12675;SDS011;63820;65.654;21.944;2023-06-22T14:02:06;12.30;;;9.88;;
12675;SDS011;63820;65.654;21.944;2023-06-22T14:04:50;11.77;;;10.70;;
12675;SDS011;63820;65.654;21.944;2023-06-22T14:07:34;11.48;;;10.40;;
12675;SDS011;63820;65.654;21.944;2023-06-22T14:10:18;12.65;;;11.45;;
12675;SDS011;63820;65.654;21.944;2023-06-22T14:13:02;12.75;;;11.60;;
12675;SDS011;63820;65.654;21.944;2023-06-22T14:15:49;12.57;;;11.35;;
12675;SDS011;63820;65.654;21.944;2023-06-22T14:18:36;14.40;;;13.10;;
12675;SDS011;63820;65.654;21.944;2023-06-22T14:21:20;15.25;;;13.75;;
12675;SDS011;63820;65.654;21.944;2023-06-22T14:24:04;15.43;;;14.13;;
12675;SDS011;63820;65.654;21.944;2023-06-22T14:26:49;15.80;;;14.30;;
12675;SDS011;63820;65.654;21.944;2023-06-22T14:29:33;15.35;;;13.85;;
12675;SDS011;63820;65.654;21.944;2023-06-22T14:32:17;17.10;;;15.50;;
12675;SDS011;63820;65.654;21.944;2023-06-22T14:35:00;16.52;;;15.07;;
12675;SDS011;63820;65.654;21.944;2023-06-22T14:37:45;16.67;;;15.07;;
12675;SDS011;63820;65.654;21.944;2023-06-22T14:40:29;17.85;;;16.17;;
12675;SDS011;63820;65.654;21.944;2023-06-22T14:43:13;18.80;;;16.90;;
12675;SDS011;63820;65.654;21.944;2023-06-22T14:45:57;20.27;;;18.48;;
12675;SDS011;63820;65.654;21.944;2023-06-22T14:48:41;19.10;;;17.40;;
12675;SDS011;63820;65.654;21.944;2023-06-22T14:51:26;19.33;;;17.42;;
12675;SDS011;63820;65.654;21.944;2023-06-22T14:54:10;20.13;;;18.15;;
12675;SDS011;63820;65.654;21.944;2023-06-22T14:56:54;20.45;;;18.27;;
12675;SDS011;63820;65.654;21.944;2023-06-22T14:59:38;18.88;;;17.02;;
12675;SDS011;63820;65.654;21.944;2023-06-22T15:02:22;14.85;;;13.52;;
12675;SDS011;63820;65.654;21.944;2023-06-22T15:05:06;15.68;;;14.27;;
12675;SDS011;63820;65.654;21.944;2023-06-22T15:07:50;15.93;;;14.50;;
12675;SDS011;63820;65.654;21.944;2023-06-22T15:10:36;15.32;;;13.82;;
12675;SDS011;63820;65.654;21.944;2023-06-22T15:13:21;14.98;;;13.48;;
12675;SDS011;63820;65.654;21.944;2023-06-22T15:16:06;15.50;;;14.02;;
12675;SDS011;63820;65.654;21.944;2023-06-22T15:18:50;15.75;;;14.32;;
12675;SDS011;63820;65.654;21.944;2023-06-22T15:21:34;15.70;;;14.10;;
12675;SDS011;63820;65.654;21.944;2023-06-22T15:24:18;16.35;;;14.77;;
12675;SDS011;63820;65.654;21.944;2023-06-22T15:27:02;17.40;;;15.70;;
12675;SDS011;63820;65.654;21.944;2023-06-22T15:29:46;15.07;;;13.57;;
12675;SDS011;63820;65.654;21.944;2023-06-22T15:32:30;15.40;;;14.02;;
12675;SDS011;63820;65.654;21.944;2023-06-22T15:35:15;16.55;;;14.95;;
12675;SDS011;63820;65.654;21.944;2023-06-22T15:38:01;15.60;;;14.07;;
12675;SDS011;63820;65.654;21.944;2023-06-22T15:40:46;16.25;;;14.65;;
12675;SDS011;63820;65.654;21.944;2023-06-22T15:43:30;16.42;;;14.82;;
12675;SDS011;63820;65.654;21.944;2023-06-22T15:46:14;16.15;;;14.55;;
12675;SDS011;63820;65.654;21.944;2023-06-22T15:49:01;18.05;;;15.20;;
12675;SDS011;63820;65.654;21.944;2023-06-22T15:51:45;17.67;;;15.95;;
12675;SDS011;63820;65.654;21.944;2023-06-22T15:54:29;17.77;;;15.88;;
12675;SDS011;63820;65.654;21.944;2023-06-22T15:57:13;18.83;;;17.05;;
12675;SDS011;63820;65.654;21.944;2023-06-22T15:59:58;18.42;;;16.63;;
12675;SDS011;63820;65.654;21.944;2023-06-22T16:02:45;20.38;;;18.40;;